createdAt,value
2023-02-21T10:24:57.605Z,500.00
2023-02-21T10:25:58.229Z,500.00
2023-02-21T10:26:58.208Z,500.00
2023-02-21T10:27:58.202Z,500.00
2023-02-21T10:28:58.197Z,500.00
2023-02-21T10:29:58.432Z,400.00
2023-02-21T10:30:58.283Z,400.00
2023-02-21T10:31:58.439Z,400.00
2023-02-21T10:32:58.155Z,400.00
2023-02-21T10:33:58.152Z,400.00
2023-02-21T10:34:58.138Z,400.00
2023-02-21T10:35:58.136Z,400.00
2023-02-21T10:36:58.435Z,400.00
2023-02-21T10:37:58.103Z,400.00
2023-02-21T10:38:58.093Z,400.00
2023-02-21T10:39:58.883Z,400.00
2023-02-21T10:40:58.121Z,400.00
2023-02-21T10:41:58.876Z,400.00
2023-02-21T10:42:58.057Z,400.00
2023-02-21T10:43:58.046Z,400.00
2023-02-21T10:44:58.037Z,400.00
2023-02-21T10:45:58.070Z,400.00
2023-02-21T10:46:58.378Z,400.00
2023-02-21T10:47:58.008Z,400.00
2023-02-21T10:48:58.010Z,400.00
2023-02-21T10:49:57.990Z,400.00
2023-02-21T10:50:58.520Z,400.00
2023-02-21T10:51:57.976Z,400.00
2023-02-21T10:52:58.891Z,400.00
2023-02-21T10:53:58.001Z,400.00
2023-02-21T10:54:57.948Z,424.00
2023-02-21T10:55:58.438Z,480.00
2023-02-21T10:56:57.947Z,509.00
2023-02-21T10:57:58.384Z,503.00
2023-02-21T10:58:57.906Z,505.00
2023-02-21T10:59:57.900Z,501.00
2023-02-21T11:00:57.913Z,497.00
2023-02-21T11:01:57.886Z,500.00
2023-02-21T11:02:57.891Z,518.00
2023-02-21T11:03:57.868Z,537.00
2023-02-21T11:04:57.847Z,505.00
2023-02-21T11:05:58.089Z,506.00
2023-02-21T11:06:57.839Z,499.00
2023-02-21T11:07:57.823Z,520.00
2023-02-21T11:08:57.816Z,519.00
2023-02-21T11:09:57.805Z,518.00
2023-02-21T11:10:57.794Z,521.00
2023-02-21T11:11:57.894Z,499.00
2023-02-21T11:12:57.805Z,500.00
2023-02-21T11:13:57.764Z,521.00
2023-02-21T11:14:57.768Z,526.00
2023-02-21T11:15:57.815Z,521.00
2023-02-21T11:16:57.911Z,534.00
2023-02-21T11:17:57.742Z,524.00
2023-02-21T11:18:57.919Z,506.00
2023-02-21T11:19:57.732Z,509.00
2023-02-21T11:20:57.708Z,500.00
2023-02-21T11:21:57.905Z,499.00
2023-02-21T11:22:57.686Z,498.00
2023-02-21T11:23:57.693Z,503.00
2023-02-21T11:24:57.667Z,502.00
2023-02-21T11:25:57.902Z,501.00
2023-02-21T11:26:57.919Z,533.00
2023-02-21T11:27:57.638Z,504.00
2023-02-21T11:28:58.460Z,524.00
2023-02-21T11:29:57.622Z,546.00
2023-02-21T11:30:57.667Z,568.00
2023-02-21T11:31:57.979Z,812.00
2023-02-21T11:32:57.603Z,661.00
2023-02-21T11:33:58.032Z,613.00
2023-02-21T11:34:57.581Z,588.00
2023-02-21T11:35:58.422Z,567.00
2023-02-21T11:36:57.925Z,564.00
2023-02-21T11:37:57.555Z,563.00
2023-02-21T11:38:57.926Z,560.00
2023-02-21T11:39:57.525Z,565.00
2023-02-21T11:40:57.519Z,547.00
2023-02-21T11:41:57.527Z,540.00
2023-02-21T11:42:57.503Z,537.00
2023-02-21T11:43:57.503Z,535.00
2023-02-21T11:44:57.563Z,525.00
2023-02-21T11:45:57.485Z,525.00
2023-02-21T11:46:57.915Z,518.00
2023-02-21T11:47:57.459Z,521.00
2023-02-21T11:48:57.936Z,519.00
2023-02-21T11:49:57.448Z,516.00
2023-02-21T11:50:57.431Z,522.00
2023-02-21T11:51:57.424Z,510.00
2023-02-21T11:52:57.498Z,511.00
2023-02-21T11:53:57.403Z,511.00
2023-02-21T11:54:57.397Z,505.00
2023-02-21T11:55:57.378Z,525.00
2023-02-21T11:56:57.376Z,523.00
2023-02-21T11:57:57.367Z,519.00
2023-02-21T11:58:57.921Z,520.00
2023-02-21T11:59:57.413Z,522.00
2023-02-21T12:00:59.933Z,514.00
2023-02-21T12:01:57.327Z,514.00
2023-02-21T12:02:57.316Z,516.00
2023-02-21T12:03:57.920Z,515.00
2023-02-21T12:04:57.290Z,508.00
2023-02-21T12:05:57.353Z,514.00
2023-02-21T12:06:57.292Z,508.00
2023-02-21T12:07:57.417Z,506.00
2023-02-21T12:08:57.254Z,502.00
2023-02-21T12:09:57.245Z,504.00
2023-02-21T12:10:57.241Z,501.00
2023-02-21T12:11:57.237Z,500.00
2023-02-21T12:12:57.413Z,500.00
2023-02-21T12:13:57.215Z,506.00
2023-02-21T12:14:57.452Z,505.00
2023-02-21T12:15:57.233Z,505.00
2023-02-21T12:16:59.933Z,503.00
2023-02-21T12:17:59.911Z,503.00
2023-02-21T12:18:57.166Z,503.00
2023-02-21T12:19:57.941Z,499.00
2023-02-21T12:20:57.145Z,502.00
2023-02-21T12:21:57.141Z,499.00
2023-02-21T12:22:57.116Z,498.00
2023-02-21T12:23:57.111Z,500.00
2023-02-21T12:24:57.098Z,507.00
2023-02-21T12:25:59.924Z,503.00
2023-02-21T12:26:57.085Z,503.00
2023-02-21T12:27:58.931Z,504.00
2023-02-21T12:28:59.915Z,503.00
2023-02-21T12:29:57.915Z,504.00
2023-02-21T12:30:57.166Z,503.00
2023-02-21T12:31:57.223Z,501.00
2023-02-21T12:32:57.450Z,501.00
2023-02-21T12:33:59.917Z,490.00
2023-02-21T12:34:57.926Z,501.00
2023-02-21T12:35:57.016Z,494.00
2023-02-21T12:36:57.427Z,492.00
2023-02-21T12:37:57.005Z,493.00
2023-02-21T12:38:59.936Z,494.00
2023-02-21T12:39:56.979Z,498.00
2023-02-21T12:40:57.933Z,501.00
2023-02-21T12:41:56.946Z,494.00
2023-02-21T12:43:11.925Z,492.00
2023-02-21T12:43:56.930Z,505.00
2023-02-21T12:44:59.425Z,502.00
2023-02-21T12:45:57.426Z,503.00
2023-02-21T12:46:56.893Z,497.00
2023-02-21T12:47:56.895Z,488.00
2023-02-21T12:48:57.466Z,490.00
2023-02-21T12:49:56.870Z,493.00
2023-02-21T12:50:56.860Z,504.00
2023-02-21T12:51:56.852Z,515.00
2023-02-21T12:52:56.848Z,505.00
2023-02-21T12:53:56.938Z,545.00
2023-02-21T12:54:56.824Z,539.00
2023-02-21T12:55:56.814Z,565.00
2023-02-21T12:56:56.800Z,579.00
2023-02-21T12:57:56.819Z,617.00
2023-02-21T12:58:56.941Z,643.00
2023-02-21T12:59:56.833Z,658.00
2023-02-21T13:00:56.795Z,691.00
2023-02-21T13:01:56.790Z,771.00
2023-02-21T13:02:57.050Z,804.00
2023-02-21T13:03:57.446Z,897.00
2023-02-21T13:04:56.752Z,936.00
2023-02-21T13:05:56.719Z,895.00
2023-02-21T13:06:57.442Z,921.00
2023-02-21T13:07:56.730Z,852.00
2023-02-21T13:08:56.937Z,784.00
2023-02-21T13:09:56.685Z,725.00
2023-02-21T13:10:56.846Z,714.00
2023-02-21T13:11:56.665Z,709.00
2023-02-21T13:12:56.979Z,702.00
2023-02-21T13:13:56.642Z,685.00
2023-02-21T13:14:59.439Z,688.00
2023-02-21T13:15:56.681Z,688.00
2023-02-21T13:16:56.609Z,677.00
2023-02-21T13:17:56.600Z,681.00
2023-02-21T13:18:56.592Z,691.00
2023-02-21T13:19:56.583Z,678.00
2023-02-21T13:20:56.725Z,670.00
2023-02-21T13:21:56.564Z,664.00
2023-02-21T13:22:56.550Z,666.00
2023-02-21T13:23:56.952Z,666.00
2023-02-21T13:24:56.537Z,680.00
2023-02-21T13:25:56.527Z,681.00
2023-02-21T13:26:56.513Z,683.00
2023-02-21T13:27:56.505Z,682.00
2023-02-21T13:28:56.502Z,680.00
2023-02-21T13:29:56.494Z,682.00
2023-02-21T13:30:56.542Z,680.00
2023-02-21T13:31:56.494Z,693.00
2023-02-21T13:32:56.471Z,708.00
2023-02-21T13:33:56.470Z,689.00
2023-02-21T13:34:56.440Z,706.00
2023-02-21T13:35:56.429Z,705.00
2023-02-21T13:36:56.444Z,693.00
2023-02-21T13:37:56.415Z,703.00
2023-02-21T13:38:56.435Z,695.00
2023-02-21T13:39:56.406Z,708.00
2023-02-21T13:40:56.384Z,718.00
2023-02-21T13:41:56.382Z,703.00
2023-02-21T13:42:56.362Z,693.00
2023-02-21T13:43:56.483Z,713.00
2023-02-21T13:44:56.347Z,713.00
2023-02-21T13:45:56.334Z,716.00
2023-02-21T13:46:56.396Z,717.00
2023-02-21T13:47:56.479Z,722.00
2023-02-21T13:48:56.476Z,709.00
2023-02-21T13:49:56.297Z,716.00
2023-02-21T13:50:56.303Z,728.00
2023-02-21T13:51:56.276Z,730.00
2023-02-21T13:52:56.301Z,747.00
2023-02-21T13:53:57.143Z,746.00
2023-02-21T13:54:56.251Z,736.00
2023-02-21T13:55:56.242Z,737.00
2023-02-21T13:56:56.237Z,734.00
2023-02-21T13:57:56.956Z,734.00
2023-02-21T13:58:56.213Z,731.00
2023-02-21T13:59:56.459Z,732.00
2023-02-21T14:00:56.311Z,736.00
2023-02-21T14:01:56.192Z,740.00
2023-02-21T14:02:56.188Z,742.00
2023-02-21T14:03:56.203Z,745.00
2023-02-21T14:04:56.484Z,728.00
2023-02-21T14:05:56.152Z,735.00
2023-02-21T14:06:56.154Z,744.00
2023-02-21T14:07:56.279Z,734.00
2023-02-21T14:08:57.098Z,743.00
2023-02-21T14:09:56.457Z,752.00
2023-02-21T14:10:58.950Z,751.00
2023-02-21T14:11:56.087Z,752.00
2023-02-21T14:12:56.083Z,749.00
2023-02-21T14:13:56.076Z,752.00
2023-02-21T14:14:56.464Z,754.00
2023-02-21T14:15:56.053Z,754.00
2023-02-21T14:16:56.038Z,746.00
2023-02-21T14:17:56.032Z,765.00
2023-02-21T14:18:56.023Z,762.00
2023-02-21T14:19:57.242Z,767.00
2023-02-21T14:20:56.020Z,773.00
2023-02-21T14:21:58.956Z,781.00
2023-02-21T14:22:55.985Z,787.00
2023-02-21T14:23:55.976Z,774.00
2023-02-21T14:24:55.997Z,771.00
2023-02-21T14:25:57.895Z,783.00
2023-02-21T14:26:55.965Z,783.00
2023-02-21T14:27:55.956Z,781.00
2023-02-21T14:28:55.933Z,770.00
2023-02-21T14:29:55.986Z,780.00
2023-02-21T14:30:55.909Z,784.00
2023-02-21T14:31:56.064Z,783.00
2023-02-21T14:32:55.910Z,784.00
2023-02-21T14:33:55.889Z,786.00
2023-02-21T14:34:55.936Z,790.00
2023-02-21T14:35:55.870Z,793.00
2023-02-21T14:36:55.853Z,787.00
2023-02-21T14:37:56.008Z,798.00
2023-02-21T14:38:55.838Z,792.00
2023-02-21T14:39:55.832Z,798.00
2023-02-21T14:40:55.840Z,796.00
2023-02-21T14:41:55.809Z,802.00
2023-02-21T14:42:56.056Z,809.00
2023-02-21T14:43:56.189Z,806.00
2023-02-21T14:44:56.003Z,800.00
2023-02-21T14:45:55.893Z,805.00
2023-02-21T14:46:55.760Z,801.00
2023-02-21T14:47:55.759Z,809.00
2023-02-21T14:48:55.975Z,805.00
2023-02-21T14:49:55.737Z,804.00
2023-02-21T14:50:56.094Z,797.00
2023-02-21T14:51:55.748Z,809.00
2023-02-21T14:52:55.706Z,817.00
2023-02-21T14:53:55.708Z,821.00
2023-02-21T14:54:55.698Z,800.00
2023-02-21T14:55:56.000Z,809.00
2023-02-21T14:56:56.496Z,813.00
2023-02-21T14:57:55.661Z,814.00
2023-02-21T14:58:55.648Z,814.00
2023-02-21T14:59:55.687Z,807.00
2023-02-21T15:00:56.982Z,817.00
2023-02-21T15:01:55.628Z,813.00
2023-02-21T15:02:55.620Z,817.00
2023-02-21T15:03:55.681Z,806.00
2023-02-21T15:04:55.603Z,812.00
2023-02-21T15:05:56.480Z,803.00
2023-02-21T15:06:55.575Z,819.00
2023-02-21T15:07:55.563Z,812.00
2023-02-21T15:08:55.551Z,824.00
2023-02-21T15:09:55.545Z,818.00
2023-02-21T15:10:55.534Z,812.00
2023-02-21T15:11:55.561Z,823.00
2023-02-21T15:12:56.540Z,814.00
2023-02-21T15:13:55.506Z,820.00
2023-02-21T15:14:55.501Z,820.00
2023-02-21T15:15:55.490Z,819.00
2023-02-21T15:16:55.575Z,828.00
2023-02-21T15:17:55.503Z,828.00
2023-02-21T15:18:55.976Z,813.00
2023-02-21T15:19:55.458Z,834.00
2023-02-21T15:20:55.502Z,814.00
2023-02-21T15:22:01.996Z,818.00
2023-02-21T15:22:55.449Z,819.00
2023-02-21T15:23:55.414Z,820.00
2023-02-21T15:24:55.978Z,820.00
2023-02-21T15:25:55.514Z,829.00
2023-02-21T15:26:55.389Z,817.00
2023-02-21T15:27:55.394Z,829.00
2023-02-21T15:28:55.396Z,821.00
2023-02-21T15:30:02.064Z,832.00
2023-02-21T15:30:55.594Z,834.00
2023-02-21T15:31:56.011Z,833.00
2023-02-21T15:32:55.329Z,835.00
2023-02-21T15:33:56.002Z,831.00
2023-02-21T15:34:55.309Z,832.00
2023-02-21T15:35:55.298Z,832.00
2023-02-21T15:36:55.319Z,840.00
2023-02-21T15:37:55.280Z,842.00
2023-02-21T15:38:57.983Z,831.00
2023-02-21T15:39:55.802Z,831.00
2023-02-21T15:40:55.267Z,833.00
2023-02-21T15:41:55.240Z,833.00
2023-02-21T15:42:55.223Z,835.00
2023-02-21T15:43:55.237Z,840.00
2023-02-21T15:44:55.232Z,840.00
2023-02-21T15:45:55.312Z,841.00
2023-02-21T15:46:55.231Z,842.00
2023-02-21T15:47:55.980Z,848.00
2023-02-21T15:48:55.172Z,828.00
2023-02-21T15:49:55.162Z,840.00
2023-02-21T15:50:55.154Z,840.00
2023-02-21T15:51:55.168Z,841.00
2023-02-21T15:52:58.005Z,852.00
2023-02-21T15:53:55.990Z,852.00
2023-02-21T15:54:55.992Z,849.00
2023-02-21T15:55:55.359Z,841.00
2023-02-21T15:56:55.502Z,838.00
2023-02-21T15:57:55.341Z,835.00
2023-02-21T15:58:55.325Z,853.00
2023-02-21T15:59:55.314Z,832.00
2023-02-21T16:00:55.416Z,849.00
2023-02-21T16:01:55.497Z,838.00
2023-02-21T16:02:55.353Z,833.00
2023-02-21T16:03:55.284Z,854.00
2023-02-21T16:04:55.272Z,839.00
2023-02-21T16:05:55.258Z,846.00
2023-02-21T16:06:55.506Z,838.00
2023-02-21T16:07:55.241Z,846.00
2023-02-21T16:08:55.236Z,848.00
2023-02-21T16:10:01.998Z,845.00
2023-02-21T16:10:55.222Z,847.00
2023-02-21T16:11:55.204Z,846.00
2023-02-21T16:12:57.993Z,847.00
2023-02-21T16:13:55.238Z,846.00
2023-02-21T16:14:55.996Z,847.00
2023-02-21T16:16:02.146Z,854.00
2023-02-21T16:16:55.155Z,847.00
2023-02-21T16:17:56.001Z,851.00
2023-02-21T16:18:55.144Z,854.00
2023-02-21T16:19:55.137Z,860.00
2023-02-21T16:20:55.120Z,863.00
2023-02-21T16:21:55.502Z,863.00
2023-02-21T16:23:08.148Z,865.00
2023-02-21T16:23:55.096Z,866.00
2023-02-21T16:24:56.394Z,868.00
2023-02-21T16:25:55.999Z,865.00
2023-02-21T16:26:55.505Z,866.00
2023-02-21T16:27:55.292Z,865.00
2023-02-21T16:28:55.276Z,868.00
2023-02-21T16:29:55.268Z,859.00
2023-02-21T16:31:02.093Z,863.00
2023-02-21T16:31:56.206Z,865.00
2023-02-21T16:32:55.248Z,865.00
2023-02-21T16:33:55.235Z,864.00
2023-02-21T16:34:55.283Z,868.00
2023-02-21T16:35:55.212Z,861.00
2023-02-21T16:36:58.008Z,862.00
2023-02-21T16:37:55.194Z,862.00
2023-02-21T16:38:55.184Z,857.00
2023-02-21T16:39:55.179Z,853.00
2023-02-21T16:41:02.000Z,861.00
2023-02-21T16:41:55.162Z,864.00
2023-02-21T16:42:55.147Z,865.00
2023-02-21T16:43:55.138Z,865.00
2023-02-21T16:44:55.140Z,866.00
2023-02-21T16:45:55.158Z,853.00
2023-02-21T16:46:55.108Z,858.00
2023-02-21T16:47:55.134Z,856.00
2023-02-21T16:48:55.092Z,855.00
2023-02-21T16:49:55.084Z,852.00
2023-02-21T16:51:02.006Z,853.00
2023-02-21T16:51:55.073Z,854.00
2023-02-21T16:52:55.059Z,854.00
2023-02-21T16:53:55.047Z,858.00
2023-02-21T16:54:55.523Z,852.00
2023-02-21T16:55:58.013Z,839.00
2023-02-21T16:56:55.020Z,853.00
2023-02-21T16:57:55.012Z,855.00
2023-02-21T16:58:55.004Z,856.00
2023-02-21T16:59:54.994Z,853.00
2023-02-21T17:00:54.982Z,854.00
2023-02-21T17:01:55.013Z,863.00
2023-02-21T17:02:55.627Z,847.00
2023-02-21T17:03:54.982Z,846.00
2023-02-21T17:04:54.949Z,851.00
2023-02-21T17:05:54.939Z,858.00
2023-02-21T17:06:54.935Z,856.00
2023-02-21T17:07:54.930Z,861.00
2023-02-21T17:08:54.913Z,849.00
2023-02-21T17:09:54.936Z,856.00
2023-02-21T17:10:54.946Z,851.00
2023-02-21T17:11:54.876Z,855.00
2023-02-21T17:12:55.029Z,858.00
2023-02-21T17:13:54.868Z,859.00
2023-02-21T17:14:54.849Z,861.00
2023-02-21T17:15:55.074Z,857.00
2023-02-21T17:16:56.572Z,843.00
2023-02-21T17:17:55.100Z,861.00
2023-02-21T17:19:02.047Z,856.00
2023-02-21T17:19:58.021Z,857.00
2023-02-21T17:20:55.521Z,857.00
2023-02-21T17:21:55.027Z,857.00
2023-02-21T17:22:55.019Z,860.00
2023-02-21T17:23:54.992Z,852.00
2023-02-21T17:24:55.519Z,853.00
2023-02-21T17:25:54.973Z,843.00
2023-02-21T17:26:55.530Z,858.00
2023-02-21T17:27:55.033Z,849.00
2023-02-21T17:28:55.036Z,854.00
2023-02-21T17:29:54.938Z,845.00
2023-02-21T17:30:54.987Z,858.00
2023-02-21T17:31:54.939Z,849.00
2023-02-21T17:32:54.909Z,842.00
2023-02-21T17:33:54.908Z,844.00
2023-02-21T17:34:54.915Z,850.00
2023-02-21T17:35:54.877Z,852.00
2023-02-21T17:36:55.032Z,846.00
2023-02-21T17:37:54.863Z,834.00
2023-02-21T17:38:56.327Z,841.00
2023-02-21T17:39:54.847Z,841.00
2023-02-21T17:40:54.835Z,841.00
2023-02-21T17:41:54.827Z,840.00
2023-02-21T17:42:54.813Z,838.00
2023-02-21T17:43:55.531Z,841.00
2023-02-21T17:45:01.578Z,839.00
2023-02-21T17:45:54.789Z,841.00
2023-02-21T17:46:54.777Z,843.00
2023-02-21T17:47:54.780Z,834.00
2023-02-21T17:48:54.772Z,841.00
2023-02-21T17:49:54.899Z,844.00
2023-02-21T17:50:54.760Z,841.00
2023-02-21T17:51:54.733Z,845.00
2023-02-21T17:52:55.531Z,844.00
2023-02-21T17:53:54.728Z,836.00
2023-02-21T17:54:54.703Z,845.00
2023-02-21T17:55:54.689Z,836.00
2023-02-21T17:56:54.683Z,847.00
2023-02-21T17:57:55.539Z,842.00
2023-02-21T17:58:54.665Z,828.00
2023-02-21T17:59:54.801Z,843.00
2023-02-21T18:00:55.558Z,849.00
2023-02-21T18:01:54.735Z,835.00
2023-02-21T18:03:15.625Z,843.00
2023-02-21T18:03:55.537Z,847.00
2023-02-21T18:04:54.685Z,850.00
2023-02-21T18:05:54.610Z,851.00
2023-02-21T18:06:54.622Z,847.00
2023-02-21T18:07:54.579Z,854.00
2023-02-21T18:08:54.575Z,850.00
2023-02-21T18:09:55.048Z,854.00
2023-02-21T18:10:54.551Z,828.00
2023-02-21T18:11:54.543Z,838.00
2023-02-21T18:12:54.573Z,827.00
2023-02-21T18:13:54.522Z,836.00
2023-02-21T18:14:54.519Z,841.00
2023-02-21T18:15:54.529Z,828.00
2023-02-21T18:16:54.499Z,829.00
2023-02-21T18:17:54.492Z,840.00
2023-02-21T18:18:54.474Z,835.00
2023-02-21T18:19:54.472Z,840.00
2023-02-21T18:20:57.060Z,828.00
2023-02-21T18:21:57.070Z,828.00
2023-02-21T18:22:54.561Z,829.00
2023-02-21T18:23:54.435Z,831.00
2023-02-21T18:24:54.416Z,833.00
2023-02-21T18:25:55.052Z,839.00
2023-02-21T18:26:54.418Z,835.00
2023-02-21T18:27:54.393Z,838.00
2023-02-21T18:28:54.385Z,850.00
2023-02-21T18:29:54.421Z,857.00
2023-02-21T18:30:54.363Z,847.00
2023-02-21T18:31:54.655Z,840.00
2023-02-21T18:32:54.558Z,846.00
2023-02-21T18:33:55.065Z,842.00
2023-02-21T18:34:54.328Z,842.00
2023-02-21T18:36:01.054Z,845.00
2023-02-21T18:36:54.313Z,847.00
2023-02-21T18:37:54.329Z,848.00
2023-02-21T18:38:57.054Z,851.00
2023-02-21T18:39:54.280Z,846.00
2023-02-21T18:40:54.276Z,846.00
2023-02-21T18:41:57.060Z,850.00
2023-02-21T18:42:54.255Z,846.00
2023-02-21T18:43:54.251Z,846.00
2023-02-21T18:44:54.237Z,846.00
2023-02-21T18:45:54.245Z,846.00
2023-02-21T18:46:54.366Z,851.00
2023-02-21T18:47:54.211Z,851.00
2023-02-21T18:48:54.211Z,857.00
2023-02-21T18:49:56.367Z,846.00
2023-02-21T18:50:54.192Z,847.00
2023-02-21T18:51:54.171Z,849.00
2023-02-21T18:52:54.160Z,851.00
2023-02-21T18:53:54.180Z,851.00
2023-02-21T18:54:54.142Z,862.00
2023-02-21T18:55:54.138Z,857.00
2023-02-21T18:57:01.069Z,856.00
2023-02-21T18:58:09.063Z,858.00
2023-02-21T18:58:54.108Z,858.00
2023-02-21T18:59:54.105Z,862.00
2023-02-21T19:00:54.131Z,862.00
2023-02-21T19:01:54.074Z,868.00
2023-02-21T19:02:54.067Z,865.00
2023-02-21T19:04:54.050Z,870.00
2023-02-21T19:05:54.040Z,854.00
2023-02-21T19:06:54.566Z,864.00
2023-02-21T19:07:54.572Z,861.00
2023-02-21T19:08:54.012Z,854.00
2023-02-21T19:10:08.603Z,863.00
2023-02-21T19:10:53.997Z,865.00
2023-02-21T19:12:53.970Z,868.00
2023-02-21T19:13:54.114Z,868.00
2023-02-21T19:14:54.568Z,871.00
2023-02-21T19:15:54.566Z,873.00
2023-02-21T19:16:53.938Z,869.00
2023-02-21T19:17:53.923Z,872.00
2023-02-21T19:18:53.919Z,856.00
2023-02-21T19:19:53.918Z,858.00
2023-02-21T19:20:53.894Z,862.00
2023-02-21T19:22:08.572Z,864.00
2023-02-21T19:22:53.877Z,866.00
2023-02-21T19:23:53.864Z,869.00
2023-02-21T19:24:53.865Z,869.00
2023-02-21T19:25:56.598Z,870.00
2023-02-21T19:26:53.961Z,865.00
2023-02-21T19:27:53.829Z,866.00
2023-02-21T19:28:53.819Z,865.00
2023-02-21T19:29:53.813Z,857.00
2023-02-21T19:30:53.813Z,862.00
2023-02-21T19:31:53.902Z,860.00
2023-02-21T19:33:08.591Z,862.00
2023-02-21T19:33:53.776Z,864.00
2023-02-21T19:34:53.770Z,867.00
2023-02-21T19:35:53.765Z,870.00
2023-02-21T19:36:53.745Z,869.00
2023-02-21T19:38:00.574Z,872.00
2023-02-21T19:38:54.579Z,863.00
2023-02-21T19:39:53.761Z,866.00
2023-02-21T19:40:53.710Z,863.00
2023-02-21T19:41:53.741Z,866.00
2023-02-21T19:42:53.686Z,858.00
2023-02-21T19:43:54.091Z,864.00
2023-02-21T19:44:53.675Z,860.00
2023-02-21T19:45:53.675Z,856.00
2023-02-21T19:46:53.647Z,861.00
2023-02-21T19:47:53.640Z,857.00
2023-02-21T19:48:53.640Z,873.00
2023-02-21T19:49:53.622Z,873.00
2023-02-21T19:50:53.610Z,858.00
2023-02-21T19:51:53.621Z,863.00
2023-02-21T19:52:53.591Z,868.00
2023-02-21T19:53:54.589Z,859.00
2023-02-21T19:54:53.572Z,874.00
2023-02-21T19:56:08.081Z,861.00
2023-02-21T19:56:53.554Z,863.00
2023-02-21T19:57:53.583Z,866.00
2023-02-21T19:58:53.543Z,867.00
2023-02-21T19:59:54.098Z,869.00
2023-02-21T20:00:53.710Z,873.00
2023-02-21T20:01:53.506Z,872.00
2023-02-21T20:02:53.502Z,869.00
2023-02-21T20:03:53.592Z,869.00
2023-02-21T20:04:53.478Z,860.00
2023-02-21T20:05:53.474Z,864.00
2023-02-21T20:06:53.471Z,861.00
2023-02-21T20:07:53.464Z,856.00
2023-02-21T20:08:53.442Z,861.00
2023-02-21T20:09:53.594Z,861.00
2023-02-21T20:10:53.420Z,855.00
2023-02-21T20:11:53.590Z,854.00
2023-02-21T20:12:53.404Z,861.00
2023-02-21T20:13:53.422Z,864.00
2023-02-21T20:14:53.384Z,863.00
2023-02-21T20:15:53.379Z,849.00
2023-02-21T20:16:53.526Z,867.00
2023-02-21T20:17:53.394Z,851.00
2023-02-21T20:18:53.598Z,866.00
2023-02-21T20:19:53.602Z,855.00
2023-02-21T20:20:53.335Z,844.00
2023-02-21T20:21:53.604Z,858.00
2023-02-21T20:22:54.091Z,863.00
2023-02-21T20:23:53.303Z,855.00
2023-02-21T20:24:54.099Z,850.00
2023-02-21T20:25:53.286Z,854.00
2023-02-21T20:26:53.277Z,852.00
2023-02-21T20:27:53.269Z,855.00
2023-02-21T20:28:53.258Z,854.00
2023-02-21T20:29:54.118Z,856.00
2023-02-21T20:30:54.224Z,846.00
2023-02-21T20:31:53.297Z,845.00
2023-02-21T20:32:53.221Z,853.00
2023-02-21T20:33:56.096Z,844.00
2023-02-21T20:34:53.213Z,844.00
2023-02-21T20:35:53.195Z,847.00
2023-02-21T20:36:54.100Z,846.00
2023-02-21T20:37:53.175Z,851.00
2023-02-21T20:39:08.103Z,856.00
2023-02-21T20:39:53.156Z,846.00
2023-02-21T20:40:53.144Z,849.00
2023-02-21T20:41:53.132Z,855.00
2023-02-21T20:42:53.603Z,855.00
2023-02-21T20:43:53.131Z,861.00
2023-02-21T20:44:54.122Z,860.00
2023-02-21T20:45:59.748Z,861.00
2023-02-21T20:46:53.097Z,862.00
2023-02-21T20:47:53.090Z,862.00
2023-02-21T20:48:59.601Z,848.00
2023-02-21T20:49:53.603Z,862.00
2023-02-21T20:50:53.601Z,863.00
2023-02-21T20:51:53.064Z,856.00
2023-02-21T20:52:53.039Z,855.00
2023-02-21T20:53:53.020Z,858.00
2023-02-21T20:54:53.017Z,855.00
2023-02-21T20:55:53.006Z,844.00
2023-02-21T20:56:52.991Z,857.00
2023-02-21T20:57:53.000Z,852.00
2023-02-21T20:58:52.973Z,852.00
2023-02-21T20:59:52.964Z,851.00
2023-02-21T21:00:52.961Z,849.00
2023-02-21T21:01:53.006Z,853.00
2023-02-21T21:02:52.986Z,864.00
2023-02-21T21:03:53.610Z,846.00
2023-02-21T21:04:52.915Z,843.00
2023-02-21T21:05:53.606Z,851.00
2023-02-21T21:06:52.905Z,844.00
2023-02-21T21:07:52.887Z,855.00
2023-02-21T21:08:51.877Z,846.00
2023-02-21T21:09:52.870Z,849.00
2023-02-21T21:10:52.959Z,845.00
2023-02-21T21:11:52.855Z,840.00
2023-02-21T21:12:52.842Z,846.00
2023-02-21T21:13:52.832Z,848.00
2023-02-21T21:14:52.822Z,846.00
2023-02-21T21:15:52.887Z,844.00
2023-02-21T21:17:52.822Z,837.00
2023-02-21T21:18:53.613Z,858.00
2023-02-21T21:19:52.814Z,842.00
2023-02-21T21:21:14.034Z,855.00
2023-02-21T21:21:52.758Z,858.00
2023-02-21T21:22:52.748Z,860.00
2023-02-21T21:25:52.730Z,856.00
2023-02-21T21:27:52.714Z,859.00
2023-02-21T21:28:53.615Z,845.00
2023-02-21T21:29:52.684Z,840.00
2023-02-21T21:30:52.679Z,838.00
2023-02-21T21:31:52.712Z,833.00
2023-02-21T21:32:52.655Z,833.00
2023-02-21T21:34:13.685Z,847.00
2023-02-21T21:34:59.621Z,850.00
2023-02-21T21:35:55.631Z,849.00
2023-02-21T21:36:52.616Z,849.00
2023-02-21T21:37:52.610Z,850.00
2023-02-21T21:38:52.604Z,854.00
2023-02-21T21:39:52.590Z,840.00
2023-02-21T21:40:52.580Z,841.00
2023-02-21T21:41:53.119Z,841.00
2023-02-21T21:42:52.565Z,831.00
2023-02-21T21:43:52.567Z,838.00
2023-02-21T21:44:52.542Z,832.00
2023-02-21T21:45:52.630Z,841.00
2023-02-21T21:47:13.664Z,837.00
2023-02-21T21:47:52.519Z,841.00
2023-02-21T21:48:52.505Z,844.00
2023-02-21T21:49:52.520Z,847.00
2023-02-21T21:50:52.484Z,849.00
2023-02-21T21:51:52.474Z,855.00
2023-02-21T21:52:52.481Z,842.00
2023-02-21T21:53:52.457Z,842.00
2023-02-21T21:54:52.460Z,840.00
2023-02-21T21:56:07.129Z,838.00
2023-02-21T21:56:59.126Z,840.00
2023-02-21T21:57:52.456Z,841.00
2023-02-21T21:58:52.422Z,844.00
2023-02-21T21:59:52.398Z,841.00
2023-02-21T22:00:52.388Z,844.00
2023-02-21T22:01:52.415Z,843.00
2023-02-21T22:02:52.485Z,847.00
2023-02-21T22:03:52.366Z,837.00
2023-02-21T22:04:53.162Z,830.00
2023-02-21T22:05:52.377Z,830.00
2023-02-21T22:06:52.333Z,826.00
2023-02-21T22:07:52.352Z,830.00
2023-02-21T22:08:52.317Z,829.00
2023-02-21T22:09:52.304Z,826.00
2023-02-21T22:10:52.310Z,837.00
2023-02-21T22:11:52.297Z,815.00
2023-02-21T22:13:52.278Z,832.00
2023-02-21T22:14:52.260Z,822.00
2023-02-21T22:15:52.298Z,820.00
2023-02-21T22:16:52.239Z,818.00
2023-02-21T22:17:52.233Z,811.00
2023-02-21T22:18:52.695Z,828.00
2023-02-21T22:19:52.220Z,831.00
2023-02-21T22:20:52.206Z,816.00
2023-02-21T22:21:52.224Z,824.00
2023-02-21T22:22:52.184Z,818.00
2023-02-21T22:23:52.179Z,805.00
2023-02-21T22:24:52.171Z,825.00
2023-02-21T22:25:52.203Z,828.00
2023-02-21T22:26:52.152Z,819.00
2023-02-21T22:27:52.142Z,828.00
2023-02-21T22:28:52.160Z,822.00
2023-02-21T22:29:52.131Z,820.00
2023-02-21T22:30:52.121Z,826.00
2023-02-21T22:31:52.553Z,825.00
2023-02-21T22:32:52.138Z,819.00
2023-02-21T22:34:52.068Z,821.00
2023-02-21T22:35:52.068Z,813.00
2023-02-21T22:36:52.642Z,814.00
2023-02-21T22:37:52.073Z,812.00
2023-02-21T22:38:52.138Z,813.00
2023-02-21T22:39:52.634Z,814.00
2023-02-21T22:40:52.025Z,809.00
2023-02-21T22:41:52.640Z,826.00
2023-02-21T22:42:51.998Z,812.00
2023-02-21T22:43:51.985Z,817.00
2023-02-21T22:44:51.973Z,818.00
2023-02-21T22:45:51.968Z,810.00
2023-02-21T22:46:51.975Z,821.00
2023-02-21T22:47:51.987Z,819.00
2023-02-21T22:48:51.941Z,807.00
2023-02-21T22:49:51.931Z,806.00
2023-02-21T22:50:51.929Z,808.00
2023-02-21T22:51:51.947Z,805.00
2023-02-21T22:52:51.904Z,805.00
2023-02-21T22:53:52.661Z,805.00
2023-02-21T22:54:51.918Z,799.00
2023-02-21T22:55:52.754Z,814.00
2023-02-21T22:56:51.915Z,806.00
2023-02-21T22:57:52.647Z,822.00
2023-02-21T22:58:52.639Z,817.00
2023-02-21T22:59:51.877Z,808.00
2023-02-21T23:00:51.862Z,799.00